Wetterstation Vordersexau
Wetterdaten: Woche 23.02.15 - 01.03.15 (KW9)
Datum Zeit Temp. A. Feuchte A. Luftdruck Regen Wind Richtung Taupunkt Windchill Windben
23.02.2015 00:00 -0,9 C 87 % 1006,2 hPa 0,0 l/m 0,0 km/h O-NO -2,8 C -0,9 C 0,0 km/h
23.02.2015 01:00 -1,6 C 87 % 1005,7 hPa 0,0 l/m 0,0 km/h O-SO -3,5 C -1,6 C 0,0 km/h
23.02.2015 02:00 -1,7 C 87 % 1004,3 hPa 0,0 l/m 0,0 km/h O-SO -3,6 C -1,7 C 0,0 km/h
23.02.2015 03:00 -2,2 C 87 % 1003,5 hPa 0,0 l/m 0,0 km/h O-SO -4,1 C -2,2 C 0,0 km/h
23.02.2015 04:00 -2,1 C 87 % 1003,0 hPa 0,0 l/m 0,0 km/h O-SO -4,0 C -2,1 C 0,0 km/h
23.02.2015 05:00 -0,9 C 87 % 1002,4 hPa 0,0 l/m 0,0 km/h O-SO -2,8 C -0,9 C 0,0 km/h
23.02.2015 06:00 -0,2 C 86 % 1000,7 hPa 0,0 l/m 0,0 km/h O-NO -2,3 C -0,2 C 0,0 km/h
23.02.2015 07:00 0,2 C 86 % 1000,0 hPa 0,0 l/m 0,0 km/h O-NO -1,9 C 0,2 C 0,0 km/h
23.02.2015 08:00 0,9 C 86 % 1000,1 hPa 1,6 l/m 0,0 km/h NO -1,2 C 0,9 C 0,0 km/h
23.02.2015 09:00 1,3 C 86 % 999,6 hPa 1,6 l/m 0,0 km/h W-NW -0,8 C 1,3 C 0,0 km/h
23.02.2015 10:00 1,8 C 86 % 999,4 hPa 3,1 l/m 0,0 km/h N -0,3 C 1,8 C 0,0 km/h
23.02.2015 11:00 2,1 C 86 % 999,7 hPa 1,6 l/m 0,0 km/h SO 0,0 C 2,1 C 0,0 km/h
23.02.2015 12:00 3,3 C 86 % 999,6 hPa 2,3 l/m 0,0 km/h SW 1,2 C 3,3 C 0,0 km/h
23.02.2015 13:00 4,9 C 85 % 999,2 hPa 1,6 l/m 5,2 km/h SW 2,6 C 4,9 C 2,9 km/h
23.02.2015 14:00 5,6 C 85 % 998,8 hPa 0,8 l/m 0,0 km/h SW 3,3 C 5,6 C 0,0 km/h
23.02.2015 15:00 7,4 C 87 % 998,5 hPa 0,0 l/m 17,5 km/h W-SW 5,4 C 0,9 C 9,7 km/h
23.02.2015 16:00 8,1 C 85 % 998,4 hPa 0,0 l/m 26,6 km/h W-NW 5,7 C -1,2 C 14,8 km/h
23.02.2015 17:00 7,2 C 86 % 998,6 hPa 0,0 l/m 14,3 km/h W 5,0 C 2,1 C 7,9 km/h
23.02.2015 18:00 7,3 C 87 % 998,9 hPa 0,0 l/m 7,1 km/h S-SW 5,3 C 6,7 C 4,0 km/h
23.02.2015 19:00 6,9 C 86 % 999,5 hPa 0,0 l/m 1,3 km/h S-SW 4,7 C 6,9 C 0,7 km/h
23.02.2015 20:00 6,7 C 85 % 1000,3 hPa 0,0 l/m 5,8 km/h S-SW 4,4 C 6,7 C 3,2 km/h
23.02.2015 21:00 6,9 C 84 % 1000,4 hPa 0,0 l/m 22,7 km/h W 4,4 C -1,7 C 12,6 km/h
23.02.2015 22:00 7,1 C 84 % 1000,4 hPa 0,0 l/m 24,6 km/h S-SW 4,6 C -2,0 C 13,7 km/h
23.02.2015 23:00 6,9 C 82 % 1000,8 hPa 0,0 l/m 16,2 km/h W-SW 4,0 C 0,8 C 9,0 km/h
24.02.2015 00:00 6,4 C 83 % 1001,1 hPa 0,0 l/m 23,3 km/h S-SO 3,7 C -2,5 C 13,0 km/h
24.02.2015 01:00 4,4 C 86 % 1001,9 hPa 4,7 l/m 0,0 km/h S 2,3 C 4,4 C 0,0 km/h
24.02.2015 02:00 3,6 C 87 % 1002,7 hPa 0,0 l/m 0,0 km/h W-SW 1,6 C 3,6 C 0,0 km/h
24.02.2015 03:00 3,8 C 87 % 1003,2 hPa 0,0 l/m 0,0 km/h W-SW 1,8 C 3,8 C 0,0 km/h
24.02.2015 04:00 4,1 C 87 % 1003,8 hPa 0,0 l/m 5,8 km/h W 2,1 C 4,1 C 3,2 km/h
24.02.2015 05:00 3,4 C 87 % 1004,4 hPa 0,0 l/m 0,0 km/h W-SW 1,4 C 3,4 C 0,0 km/h
24.02.2015 06:00 3,2 C 87 % 1004,8 hPa 0,0 l/m 15,6 km/h W 1,2 C -3,4 C 8,6 km/h
24.02.2015 07:00 2,3 C 86 % 1005,3 hPa 0,0 l/m 0,0 km/h W-SW 0,2 C 2,3 C 0,0 km/h
24.02.2015 08:00 3,1 C 87 % 1006,2 hPa 0,0 l/m 13,0 km/h SW 1,2 C -2,1 C 7,2 km/h
24.02.2015 09:00 4,6 C 83 % 1007,1 hPa 0,0 l/m 24,0 km/h W 2,0 C -5,2 C 13,3 km/h
24.02.2015 10:00 6,1 C 78 % 1008,2 hPa 0,0 l/m 8,4 km/h S-SO 2,6 C 4,4 C 4,7 km/h
24.02.2015 11:00 7,5 C 73 % 1008,7 hPa 0,0 l/m 20,7 km/h SW 3,0 C -0,2 C 11,5 km/h
24.02.2015 12:00 8,3 C 67 % 1008,8 hPa 0,0 l/m 32,4 km/h S-SW 2,5 C -2,3 C 18,0 km/h
24.02.2015 13:00 8,6 C 64 % 1009,3 hPa 0,0 l/m 26,6 km/h W-SW 2,2 C -0,5 C 14,8 km/h
24.02.2015 14:00 7,6 C 65 % 1009,7 hPa 0,0 l/m 9,7 km/h S 1,5 C 5,1 C 5,4 km/h
24.02.2015 15:00 6,8 C 66 % 1009,9 hPa 0,0 l/m 12,3 km/h W 0,9 C 2,7 C 6,8 km/h
24.02.2015 16:00 6,4 C 67 % 1010,4 hPa 0,0 l/m 0,0 km/h SW 0,7 C 6,4 C 0,0 km/h
24.02.2015 17:00 5,6 C 69 % 1011,1 hPa 0,0 l/m 0,0 km/h S-SO 0,4 C 5,6 C 0,0 km/h
24.02.2015 18:00 4,5 C 73 % 1012,1 hPa 0,0 l/m 0,0 km/h SO 0,1 C 4,5 C 0,0 km/h
24.02.2015 19:00 4,1 C 77 % 1012,8 hPa 0,0 l/m 0,0 km/h O 0,4 C 4,1 C 0,0 km/h
24.02.2015 20:00 3,6 C 80 % 1013,5 hPa 0,0 l/m 0,0 km/h W-SW 0,5 C 3,6 C 0,0 km/h
24.02.2015 21:00 3,5 C 83 % 1014,5 hPa 0,8 l/m 3,9 km/h S-SO 0,9 C 3,5 C 2,2 km/h
24.02.2015 22:00 2,6 C 85 % 1014,8 hPa 0,0 l/m 0,0 km/h O-SO 0,3 C 2,6 C 0,0 km/h
24.02.2015 23:00 1,4 C 86 % 1014,9 hPa 0,0 l/m 0,0 km/h O-SO -0,7 C 1,4 C 0,0 km/h
25.02.2015 00:00 1,7 C 87 % 1015,3 hPa 0,0 l/m 0,0 km/h O-SO -0,2 C 1,7 C 0,0 km/h
25.02.2015 01:00 2,1 C 87 % 1015,7 hPa 0,0 l/m 0,0 km/h SO 0,2 C 2,1 C 0,0 km/h
25.02.2015 02:00 1,9 C 87 % 1015,5 hPa 0,8 l/m 0,0 km/h SO -0,0 C 1,9 C 0,0 km/h
25.02.2015 03:00 1,6 C 87 % 1016,0 hPa 0,0 l/m 0,0 km/h O -0,3 C 1,6 C 0,0 km/h
25.02.2015 04:00 2,2 C 87 % 1016,6 hPa 0,0 l/m 0,0 km/h O-SO 0,3 C 2,2 C 0,0 km/h
25.02.2015 05:00 1,9 C 87 % 1016,9 hPa 0,8 l/m 0,0 km/h O-SO -0,0 C 1,9 C 0,0 km/h
25.02.2015 06:00 1,9 C 87 % 1017,4 hPa 0,0 l/m 0,0 km/h O -0,0 C 1,9 C 0,0 km/h
25.02.2015 07:00 1,2 C 87 % 1017,4 hPa 0,0 l/m 0,0 km/h SO -0,7 C 1,2 C 0,0 km/h
25.02.2015 08:00 2,6 C 86 % 1017,5 hPa 0,0 l/m 0,0 km/h SO 0,5 C 2,6 C 0,0 km/h
25.02.2015 09:00 7,7 C 86 % 1017,9 hPa 0,0 l/m 0,0 km/h W-SW 5,5 C 7,7 C 0,0 km/h
25.02.2015 10:00 11,1 C 73 % 1017,8 hPa 0,0 l/m 0,0 km/h W-SW 6,4 C 11,1 C 0,0 km/h
25.02.2015 11:00 13,6 C 65 % 1017,5 hPa 0,0 l/m 0,0 km/h W 7,1 C 13,6 C 0,0 km/h
25.02.2015 12:00 8,9 C 69 % 1017,1 hPa 0,0 l/m 0,0 km/h W 3,5 C 8,9 C 0,0 km/h
25.02.2015 13:00 12,9 C 55 % 1016,8 hPa 0,0 l/m 2,6 km/h W-NW 4,1 C 12,9 C 1,4 km/h
25.02.2015 14:00 16,3 C 44 % 1016,2 hPa 0,0 l/m 0,0 km/h S-SO 4,0 C 16,3 C 0,0 km/h
25.02.2015 15:00 17,7 C 39 % 1016,3 hPa 0,0 l/m 2,6 km/h N 3,6 C 17,7 C 1,4 km/h
25.02.2015 16:00 17,5 C 36 % 1016,2 hPa 0,0 l/m 0,0 km/h N 2,3 C 17,5 C 0,0 km/h
25.02.2015 17:00 12,1 C 42 % 1016,6 hPa 0,0 l/m 0,0 km/h O-SO -0,4 C 12,1 C 0,0 km/h
25.02.2015 18:00 3,3 C 68 % 1017,1 hPa 0,0 l/m 0,0 km/h O-SO -2,0 C 3,3 C 0,0 km/h
25.02.2015 19:00 1,6 C 76 % 1017,3 hPa 0,0 l/m 0,0 km/h SO -2,2 C 1,6 C 0,0 km/h
25.02.2015 20:00 0,8 C 80 % 1017,7 hPa 0,0 l/m 0,0 km/h N-NO -2,2 C 0,8 C 0,0 km/h
25.02.2015 21:00 0,3 C 83 % 1018,2 hPa 0,0 l/m 0,0 km/h SO -2,2 C 0,3 C 0,0 km/h
25.02.2015 22:00 -0,4 C 84 % 1018,4 hPa 0,0 l/m 0,0 km/h O-SO -2,8 C -0,4 C 0,0 km/h
25.02.2015 23:00 -0,8 C 85 % 1018,6 hPa 0,0 l/m 0,0 km/h O -3,0 C -0,8 C 0,0 km/h
26.02.2015 00:00 -1,1 C 86 % 1018,7 hPa 0,0 l/m 0,0 km/h O-NO -3,1 C -1,1 C 0,0 km/h
26.02.2015 01:00 -0,9 C 86 % 1019,0 hPa 0,0 l/m 0,0 km/h O-SO -2,9 C -0,9 C 0,0 km/h
26.02.2015 02:00 -0,1 C 86 % 1019,0 hPa 0,0 l/m 0,0 km/h SO -2,2 C -0,1 C 0,0 km/h
26.02.2015 03:00 0,2 C 86 % 1018,5 hPa 0,0 l/m 0,0 km/h SO -1,9 C 0,2 C 0,0 km/h
26.02.2015 04:00 0,3 C 86 % 1018,6 hPa 0,0 l/m 0,6 km/h SO -1,8 C 0,3 C 0,4 km/h
26.02.2015 05:00 -0,5 C 86 % 1018,7 hPa 0,0 l/m 0,0 km/h SO -2,5 C -0,5 C 0,0 km/h
26.02.2015 06:00 -0,1 C 86 % 1018,6 hPa 0,0 l/m 0,0 km/h O-SO -2,2 C -0,1 C 0,0 km/h
26.02.2015 07:00 -1,1 C 86 % 1018,8 hPa 0,0 l/m 0,0 km/h O-NO -3,1 C -1,1 C 0,0 km/h
26.02.2015 08:00 3,1 C 86 % 1018,9 hPa 0,0 l/m 0,0 km/h O-NO 1,0 C 3,1 C 0,0 km/h
26.02.2015 09:00 10,4 C 68 % 1018,3 hPa 0,0 l/m 0,0 km/h W 4,8 C 10,4 C 0,0 km/h
26.02.2015 10:00 13,9 C 55 % 1018,0 hPa 0,0 l/m 0,0 km/h W 5,0 C 13,9 C 0,0 km/h
26.02.2015 11:00 15,8 C 49 % 1017,5 hPa 0,0 l/m 0,0 km/h W 5,1 C 15,8 C 0,0 km/h
26.02.2015 12:00 14,6 C 47 % 1016,4 hPa 0,0 l/m 5,2 km/h W-SW 3,4 C 14,6 C 2,9 km/h
26.02.2015 13:00 13,9 C 47 % 1015,5 hPa 0,0 l/m 1,9 km/h W 2,8 C 13,9 C 1,1 km/h
26.02.2015 14:00 16,2 C 41 % 1014,8 hPa 0,0 l/m 3,9 km/h W 2,9 C 16,2 C 2,2 km/h
26.02.2015 15:00 17,9 C 38 % 1013,9 hPa 0,0 l/m 0,0 km/h W-NW 3,4 C 17,9 C 0,0 km/h
26.02.2015 16:00 10,6 C 51 % 1013,7 hPa 0,0 l/m 0,0 km/h W-NW 0,9 C 10,6 C 0,0 km/h
26.02.2015 17:00 8,4 C 56 % 1013,3 hPa 0,0 l/m 0,0 km/h SO 0,1 C 8,4 C 0,0 km/h
26.02.2015 18:00 7,2 C 62 % 1013,1 hPa 0,0 l/m 0,0 km/h O-SO 0,4 C 7,2 C 0,0 km/h
26.02.2015 19:00 6,3 C 67 % 1012,5 hPa 0,0 l/m 0,0 km/h O-NO 0,6 C 6,3 C 0,0 km/h
26.02.2015 20:00 5,9 C 69 % 1012,1 hPa 0,0 l/m 0,0 km/h O 0,7 C 5,9 C 0,0 km/h
26.02.2015 21:00 5,6 C 69 % 1011,2 hPa 0,0 l/m 0,0 km/h N-NO 0,4 C 5,6 C 0,0 km/h
26.02.2015 22:00 5,2 C 70 % 1010,5 hPa 0,0 l/m 7,8 km/h O-NO 0,2 C 4,0 C 4,3 km/h
26.02.2015 23:00 5,6 C 66 % 1009,9 hPa 0,0 l/m 0,0 km/h NO -0,2 C 5,6 C 0,0 km/h
27.02.2015 00:00 5,1 C 69 % 1009,5 hPa 0,0 l/m 0,0 km/h NO -0,1 C 5,1 C 0,0 km/h
27.02.2015 01:00 5,8 C 68 % 1008,7 hPa 0,0 l/m 1,9 km/h W-NW 0,4 C 5,8 C 1,1 km/h
27.02.2015 02:00 6,3 C 67 % 1008,0 hPa 0,0 l/m 7,1 km/h W-NW 0,6 C 5,7 C 4,0 km/h
27.02.2015 03:00 4,8 C 73 % 1006,9 hPa 0,0 l/m 0,0 km/h W 0,4 C 4,8 C 0,0 km/h
27.02.2015 04:00 4,1 C 78 % 1006,1 hPa 0,4 l/m 0,0 km/h W-NW 0,6 C 4,1 C 0,0 km/h
27.02.2015 05:00 3,9 C 81 % 1006,0 hPa 0,8 l/m 0,0 km/h W-NW 0,9 C 3,9 C 0,0 km/h
27.02.2015 06:00 3,8 C 83 % 1005,8 hPa 0,8 l/m 0,0 km/h N 1,2 C 3,8 C 0,0 km/h
27.02.2015 07:00 3,8 C 85 % 1006,4 hPa 0,4 l/m 0,0 km/h N 1,5 C 3,8 C 0,0 km/h
27.02.2015 08:00 4,2 C 85 % 1007,1 hPa 1,2 l/m 0,0 km/h N-NW 1,9 C 4,2 C 0,0 km/h
27.02.2015 09:00 4,9 C 86 % 1007,7 hPa 1,2 l/m 0,0 km/h W 2,8 C 4,9 C 0,0 km/h
27.02.2015 10:00 5,6 C 86 % 1008,8 hPa 1,2 l/m 0,0 km/h N-NO 3,4 C 5,6 C 0,0 km/h
27.02.2015 11:00 5,4 C 86 % 1009,9 hPa 0,8 l/m 0,0 km/h N-NO 3,3 C 5,4 C 0,0 km/h
27.02.2015 12:00 4,7 C 86 % 1010,9 hPa 0,4 l/m 2,6 km/h N-NW 2,6 C 4,7 C 1,4 km/h
27.02.2015 13:00 4,6 C 86 % 1011,6 hPa 0,4 l/m 2,6 km/h N-NW 2,5 C 4,6 C 1,4 km/h
27.02.2015 14:00 4,5 C 86 % 1012,4 hPa 0,4 l/m 5,8 km/h N-NO 2,4 C 4,5 C 3,2 km/h
27.02.2015 15:00 4,2 C 86 % 1013,6 hPa 0,4 l/m 3,9 km/h N 2,1 C 4,2 C 2,2 km/h
27.02.2015 16:00 3,8 C 87 % 1015,0 hPa 0,4 l/m 0,0 km/h N-NO 1,8 C 3,8 C 0,0 km/h
27.02.2015 17:00 3,6 C 87 % 1016,1 hPa 0,8 l/m 0,0 km/h W-NW 1,6 C 3,6 C 0,0 km/h
27.02.2015 18:00 3,3 C 87 % 1017,0 hPa 0,4 l/m 0,0 km/h N-NO 1,3 C 3,3 C 0,0 km/h
27.02.2015 19:00 3,1 C 87 % 1017,9 hPa 0,0 l/m 0,0 km/h N-NO 1,2 C 3,1 C 0,0 km/h
27.02.2015 20:00 2,9 C 87 % 1018,5 hPa 0,0 l/m 0,0 km/h N-NO 1,0 C 2,9 C 0,0 km/h
27.02.2015 21:00 3,0 C 87 % 1019,1 hPa 0,0 l/m 0,0 km/h SO 1,1 C 3,0 C 0,0 km/h
27.02.2015 22:00 2,5 C 87 % 1019,4 hPa 0,0 l/m 0,0 km/h SO 0,6 C 2,5 C 0,0 km/h
27.02.2015 23:00 2,4 C 87 % 1019,8 hPa 0,0 l/m 0,0 km/h SO 0,5 C 2,4 C 0,0 km/h
28.02.2015 00:00 2,5 C 86 % 1019,7 hPa 0,4 l/m 0,0 km/h SO 0,4 C 2,5 C 0,0 km/h
28.02.2015 01:00 2,3 C 87 % 1019,5 hPa 0,0 l/m 0,0 km/h SO 0,4 C 2,3 C 0,0 km/h
28.02.2015 02:00 1,6 C 87 % 1019,2 hPa 0,0 l/m 0,0 km/h SO -0,3 C 1,6 C 0,0 km/h
28.02.2015 03:00 1,9 C 87 % 1019,0 hPa 0,0 l/m 0,0 km/h SO -0,0 C 1,9 C 0,0 km/h
28.02.2015 04:00 1,9 C 86 % 1019,3 hPa 0,0 l/m 0,0 km/h SO -0,2 C 1,9 C 0,0 km/h
28.02.2015 05:00 1,8 C 86 % 1019,4 hPa 0,0 l/m 0,0 km/h SO -0,3 C 1,8 C 0,0 km/h
28.02.2015 06:00 1,5 C 86 % 1019,6 hPa 0,0 l/m 0,0 km/h SO -0,6 C 1,5 C 0,0 km/h
28.02.2015 07:00 0,0 C 87 % 1019,7 hPa 0,0 l/m 0,0 km/h SO -1,9 C 0,0 C 0,0 km/h
28.02.2015 08:00 3,7 C 80 % 1019,8 hPa 0,0 l/m 0,0 km/h SO 0,6 C 3,7 C 0,0 km/h
28.02.2015 09:00 8,1 C 83 % 1019,5 hPa 0,0 l/m 0,0 km/h S-SO 5,4 C 8,1 C 0,0 km/h
28.02.2015 10:00 13,1 C 65 % 1019,1 hPa 0,0 l/m 3,2 km/h W-SW 6,7 C 13,1 C 1,8 km/h
28.02.2015 11:00 14,8 C 57 % 1018,6 hPa 0,0 l/m 5,8 km/h W 6,4 C 14,8 C 3,2 km/h
28.02.2015 12:00 10,8 C 59 % 1018,0 hPa 0,0 l/m 2,6 km/h W-NW 3,1 C 10,8 C 1,4 km/h
28.02.2015 13:00 11,2 C 58 % 1017,3 hPa 0,0 l/m 0,0 km/h W-SW 3,2 C 11,2 C 0,0 km/h
28.02.2015 14:00 10,8 C 55 % 1016,6 hPa 0,0 l/m 0,0 km/h W-NW 2,1 C 10,8 C 0,0 km/h
28.02.2015 15:00 8,6 C 63 % 1016,6 hPa 0,0 l/m 3,2 km/h W 2,0 C 8,6 C 1,8 km/h
28.02.2015 16:00 10,1 C 59 % 1016,2 hPa 0,0 l/m 0,0 km/h W 2,5 C 10,1 C 0,0 km/h
28.02.2015 17:00 10,1 C 59 % 1015,7 hPa 0,0 l/m 1,3 km/h W 2,5 C 10,1 C 0,7 km/h
28.02.2015 18:00 4,1 C 72 % 1015,8 hPa 0,0 l/m 0,0 km/h SO -0,5 C 4,1 C 0,0 km/h
28.02.2015 19:00 2,1 C 81 % 1015,9 hPa 0,0 l/m 0,0 km/h O-SO -0,8 C 2,1 C 0,0 km/h
28.02.2015 20:00 1,5 C 84 % 1015,7 hPa 0,0 l/m 0,0 km/h SO -0,9 C 1,5 C 0,0 km/h
28.02.2015 21:00 1,5 C 85 % 1014,4 hPa 0,0 l/m 6,5 km/h O-SO -0,7 C 1,4 C 3,6 km/h
28.02.2015 22:00 1,6 C 84 % 1013,9 hPa 0,0 l/m 0,0 km/h O-SO -0,8 C 1,6 C 0,0 km/h
28.02.2015 23:00 0,9 C 84 % 1012,9 hPa 0,0 l/m 7,1 km/h O-SO -1,5 C 0,2 C 4,0 km/h
01.03.2015 00:00 1,2 C 85 % 1012,0 hPa 0,0 l/m 0,0 km/h O-SO -1,0 C 1,2 C 0,0 km/h
01.03.2015 01:00 3,8 C 79 % 1011,6 hPa 0,0 l/m 0,0 km/h S-SO 0,5 C 3,8 C 0,0 km/h
01.03.2015 02:00 5,4 C 70 % 1010,7 hPa 0,0 l/m 16,2 km/h S-SO 0,4 C -1,0 C 9,0 km/h
01.03.2015 03:00 5,4 C 65 % 1010,3 hPa 0,0 l/m 5,2 km/h S -0,6 C 5,4 C 2,9 km/h
01.03.2015 04:00 5,8 C 60 % 1010,0 hPa 0,0 l/m 0,0 km/h S-SO -1,4 C 5,8 C 0,0 km/h
01.03.2015 05:00 3,5 C 73 % 1010,1 hPa 0,0 l/m 13,6 km/h S-SO -0,9 C -2,0 C 7,6 km/h
01.03.2015 06:00 3,5 C 80 % 1009,2 hPa 0,0 l/m 13,6 km/h S-SO 0,4 C -2,0 C 7,6 km/h
01.03.2015 07:00 3,5 C 80 % 1008,9 hPa 0,0 l/m 13,6 km/h S-SO 0,4 C -2,0 C 7,6 km/h
01.03.2015 08:00 3,5 C 80 % 1009,4 hPa 0,4 l/m 13,6 km/h S-SO 0,4 C -2,0 C 7,6 km/h
01.03.2015 09:00 3,5 C 80 % 1009,2 hPa 0,0 l/m 13,6 km/h S-SO 0,4 C -2,0 C 7,6 km/h
01.03.2015 10:00 3,5 C 80 % 1008,8 hPa 0,0 l/m 13,6 km/h W 0,4 C -2,0 C 7,6 km/h
01.03.2015 11:00 3,5 C 80 % 1009,1 hPa 0,0 l/m 13,6 km/h W 0,4 C -2,0 C 7,6 km/h
01.03.2015 12:00 11,6 C 78 % 1008,4 hPa 0,4 l/m 33,7 km/h W-SW 7,9 C 2,2 C 18,7 km/h
01.03.2015 13:00 11,3 C 79 % 1008,2 hPa 0,0 l/m 11,7 km/h W-SW 7,8 C 8,2 C 6,5 km/h
01.03.2015 14:00 13,6 C 72 % 1007,6 hPa 0,0 l/m 32,4 km/h W-SW 8,6 C 5,3 C 18,0 km/h
01.03.2015 15:00 11,6 C 80 % 1007,4 hPa 0,0 l/m 20,7 km/h W 8,3 C 5,1 C 11,5 km/h
01.03.2015 16:00 11,2 C 81 % 1007,4 hPa 0,0 l/m 11,0 km/h W-SW 8,1 C 8,4 C 6,1 km/h
01.03.2015 17:00 10,2 C 85 % 1007,4 hPa 0,0 l/m 11,0 km/h S-SW 7,8 C 7,3 C 6,1 km/h
01.03.2015 18:00 10,3 C 84 % 1007,2 hPa 0,0 l/m 27,2 km/h S-SW 7,7 C 1,7 C 15,1 km/h
01.03.2015 19:00 10,5 C 82 % 1007,4 hPa 0,0 l/m 22,7 km/h W-SW 7,6 C 3,1 C 12,6 km/h
01.03.2015 20:00 10,5 C 82 % 1006,9 hPa 0,0 l/m 7,8 km/h W-SW 7,6 C 9,5 C 4,3 km/h
01.03.2015 21:00 10,7 C 83 % 1006,7 hPa 0,0 l/m 30,5 km/h W-SW 7,9 C 1,5 C 16,9 km/h
01.03.2015 22:00 10,3 C 84 % 1006,3 hPa 0,0 l/m 18,8 km/h W-SW 7,7 C 4,1 C 10,4 km/h
01.03.2015 23:00 10,3 C 81 % 1005,2 hPa 0,0 l/m 23,3 km/h W 7,2 C 2,7 C 13,0 km/h
Min-Datum _ 23.02.15 25.02.15 23.02.15 - 23.02.15 - 23.02.15 24.02.15 23.02.15
_ Min-Zeit 03:53 16:53 16:53 - 00:53 - 03:53 09:53 00:53
Minimum _ -2,2 C 36 % 998,4 hPa - 0,0 km/h - -4,1 C -5,2 C 0,0 km/h
Max-Datum _ 26.02.15 23.02.15 27.02.15 24.02.15 01.03.15 - 01.03.15 26.02.15 01.03.15
_ Max-Zeit 15:53 00:53 23:53 01:53 12:53 - 14:53 15:53 12:53
Maximum _ 17,9 C 87 % 1019,8 hPa 4,7 l/m 33,7 km/h
W-SW
- 8,6 C 17,9 C 18,7 km/h
W-SW
Durchschnitt _ 5,3 C 78 % 1011,4 hPa #31,0 l/m 4,7 km/h SO 1,5 C 3,9 C 2,6 km/h
www.sexauwetter.de